createdAt,value
2022-10-14T00:01:14.616Z,76.85
2022-10-14T00:03:42.356Z,76.59
2022-10-14T00:06:19.491Z,76.58
2022-10-14T00:08:49.559Z,75.97
2022-10-14T00:11:29.759Z,76.00
2022-10-14T00:14:05.200Z,75.60
2022-10-14T00:16:37.063Z,76.35
2022-10-14T00:19:05.790Z,76.10
2022-10-14T00:21:34.287Z,76.16
2022-10-14T00:24:01.225Z,75.58
2022-10-14T00:26:33.297Z,76.01
2022-10-14T00:29:01.070Z,76.38
2022-10-14T00:31:28.574Z,76.42
2022-10-14T00:33:55.983Z,76.77
2022-10-14T00:36:25.037Z,76.23
2022-10-14T00:38:54.338Z,76.80
2022-10-14T00:41:31.743Z,76.87
2022-10-14T00:44:03.327Z,77.07
2022-10-14T00:46:37.290Z,76.85
2022-10-14T00:49:09.548Z,77.13
2022-10-14T00:51:38.588Z,77.23
2022-10-14T00:54:06.205Z,77.00
2022-10-14T00:56:35.011Z,76.71
2022-10-14T00:59:04.719Z,76.72
2022-10-14T01:01:32.203Z,77.01
2022-10-14T01:03:59.124Z,77.23
2022-10-14T01:06:48.083Z,77.08
2022-10-14T01:09:31.835Z,77.06
2022-10-14T01:12:30.071Z,77.62
2022-10-14T01:15:41.358Z,77.69
2022-10-14T01:18:19.865Z,78.72
2022-10-14T01:21:42.173Z,78.71
2022-10-14T01:24:30.671Z,79.19
2022-10-14T01:27:15.792Z,79.06
2022-10-14T01:30:16.457Z,79.80
2022-10-14T01:33:09.007Z,79.24
2022-10-14T01:36:06.125Z,79.39
2022-10-14T01:38:46.975Z,79.66
2022-10-14T01:41:25.266Z,80.17
2022-10-14T01:43:55.349Z,79.81
2022-10-14T01:46:25.736Z,79.95
2022-10-14T01:49:00.428Z,79.96
2022-10-14T01:51:40.094Z,79.83
2022-10-14T01:54:13.183Z,80.32
2022-10-14T01:56:45.259Z,80.25
2022-10-14T01:59:16.974Z,80.32
2022-10-14T02:01:44.023Z,80.97
2022-10-14T02:04:21.044Z,80.37
2022-10-14T02:07:02.820Z,80.77
2022-10-14T02:09:51.710Z,81.19
2022-10-14T02:12:54.686Z,81.34
2022-10-14T02:15:56.596Z,81.43
2022-10-14T02:18:37.892Z,81.68
2022-10-14T02:21:17.769Z,81.15
2022-10-14T02:24:02.271Z,80.84
2022-10-14T02:26:31.532Z,81.48
2022-10-14T02:29:01.508Z,81.85
2022-10-14T02:31:29.151Z,81.75
2022-10-14T02:34:00.871Z,81.33
2022-10-14T02:36:29.814Z,81.39
2022-10-14T02:39:00.663Z,81.93
2022-10-14T02:41:35.000Z,82.02
2022-10-14T02:44:02.255Z,82.19
2022-10-14T02:46:29.653Z,82.75
2022-10-14T02:48:56.660Z,82.79
2022-10-14T02:51:23.642Z,82.66
2022-10-14T02:53:52.985Z,82.33
2022-10-14T02:56:19.970Z,82.78
2022-10-14T02:58:46.864Z,82.96
2022-10-14T03:01:13.804Z,83.07
2022-10-14T03:03:40.726Z,83.00
2022-10-14T03:06:07.772Z,82.84
2022-10-14T03:08:34.824Z,83.04
2022-10-14T03:11:01.784Z,82.77
2022-10-14T03:13:28.733Z,82.48
2022-10-14T03:15:55.922Z,82.34
2022-10-14T03:18:22.902Z,82.88
2022-10-14T03:20:49.892Z,82.83
2022-10-14T03:23:16.963Z,83.07
2022-10-14T03:25:45.247Z,82.95
2022-10-14T03:28:12.886Z,82.79
2022-10-14T03:30:40.060Z,82.65
2022-10-14T03:33:06.978Z,83.15
2022-10-14T03:35:33.905Z,82.79
2022-10-14T03:38:03.184Z,83.64
2022-10-14T03:40:30.960Z,83.75
2022-10-14T03:43:01.223Z,83.61
2022-10-14T03:45:28.647Z,84.07
2022-10-14T03:47:56.287Z,83.97
2022-10-14T03:50:23.390Z,83.70
2022-10-14T03:52:55.293Z,83.77
2022-10-14T03:55:23.448Z,83.32
2022-10-14T03:57:50.349Z,83.81
2022-10-14T04:00:17.924Z,84.36
2022-10-14T04:02:44.842Z,84.74
2022-10-14T04:05:11.905Z,84.98
2022-10-14T04:07:39.012Z,84.83
2022-10-14T04:10:06.882Z,84.93
2022-10-14T04:12:33.900Z,85.28
2022-10-14T04:15:00.851Z,85.97
2022-10-14T04:17:27.739Z,86.22
2022-10-14T04:19:54.701Z,85.39
2022-10-14T04:22:23.195Z,85.77
2022-10-14T04:24:50.941Z,86.18
2022-10-14T04:27:18.665Z,86.28
2022-10-14T04:29:45.596Z,85.47
2022-10-14T04:32:12.598Z,86.74
2022-10-14T04:34:39.508Z,86.47
2022-10-14T04:37:06.505Z,86.58
2022-10-14T04:39:33.416Z,86.90
2022-10-14T04:42:00.340Z,86.99
2022-10-14T04:44:27.290Z,86.56
2022-10-14T04:46:54.261Z,86.35
2022-10-14T04:49:21.328Z,86.27
2022-10-14T04:51:48.260Z,86.08
2022-10-14T04:54:15.313Z,85.54
2022-10-14T04:56:42.359Z,86.17
2022-10-14T04:59:10.964Z,86.69
2022-10-14T05:01:37.990Z,86.94
2022-10-14T05:04:05.315Z,86.72
2022-10-14T05:06:32.410Z,86.92
2022-10-14T05:08:59.311Z,87.42
2022-10-14T05:11:26.307Z,87.05
2022-10-14T05:13:53.204Z,87.23
2022-10-14T05:16:20.130Z,87.06
2022-10-14T05:18:47.020Z,86.48
2022-10-14T05:21:14.047Z,86.84
2022-10-14T05:23:40.991Z,86.94
2022-10-14T05:26:10.754Z,85.89
2022-10-14T05:28:40.817Z,84.72
2022-10-14T05:31:09.030Z,85.22
2022-10-14T05:33:36.490Z,85.00
2022-10-14T05:36:03.655Z,84.66
2022-10-14T05:38:33.572Z,84.91
2022-10-14T05:41:00.866Z,84.30
2022-10-14T05:43:31.991Z,83.73
2022-10-14T05:46:00.699Z,83.85
2022-10-14T05:48:27.744Z,83.13
2022-10-14T05:50:54.715Z,81.94
2022-10-14T05:53:21.652Z,80.97
2022-10-14T05:55:48.668Z,81.95
2022-10-14T05:58:15.692Z,81.01
2022-10-14T06:00:42.586Z,79.51
2022-10-14T06:03:13.196Z,80.03
2022-10-14T06:05:40.224Z,79.62
2022-10-14T06:08:07.183Z,79.37
2022-10-14T06:10:35.968Z,78.89
2022-10-14T06:13:03.079Z,78.51
2022-10-14T06:15:30.031Z,78.45
2022-10-14T06:17:56.958Z,78.10
2022-10-14T06:20:23.954Z,76.77
2022-10-14T06:22:50.880Z,75.85
2022-10-14T06:25:17.809Z,76.28
2022-10-14T06:27:44.745Z,76.75
2022-10-14T06:30:12.599Z,76.53
2022-10-14T06:32:39.520Z,77.73
2022-10-14T06:35:07.261Z,79.13
2022-10-14T06:37:34.235Z,80.27
2022-10-14T06:40:01.227Z,79.07
2022-10-14T06:42:28.248Z,79.47
2022-10-14T06:44:55.174Z,78.45
2022-10-14T06:47:22.086Z,75.62
2022-10-14T06:49:48.983Z,76.14
2022-10-14T06:52:15.925Z,75.66
2022-10-14T06:54:48.045Z,74.47
2022-10-14T06:57:15.860Z,73.65
2022-10-14T06:59:43.068Z,73.28
2022-10-14T07:02:10.779Z,71.53
2022-10-14T07:04:39.308Z,68.64
2022-10-14T07:07:08.508Z,67.65
2022-10-14T07:09:35.473Z,67.63
2022-10-14T07:12:02.393Z,66.61
2022-10-14T07:14:29.329Z,67.19
2022-10-14T07:16:56.241Z,64.56
2022-10-14T07:19:23.184Z,66.66
2022-10-14T07:21:50.201Z,67.26
2022-10-14T07:24:17.164Z,67.11
2022-10-14T07:26:44.111Z,67.75
2022-10-14T07:29:11.082Z,68.18
2022-10-14T07:31:38.010Z,68.12
2022-10-14T07:34:05.140Z,66.65
2022-10-14T07:36:32.066Z,63.01
2022-10-14T07:38:59.049Z,60.72
2022-10-14T07:41:26.639Z,59.49
2022-10-14T07:44:02.022Z,59.65
2022-10-14T07:46:32.293Z,57.53
2022-10-14T07:49:13.725Z,57.12
2022-10-14T07:51:42.558Z,56.87
2022-10-14T07:54:19.604Z,58.32
2022-10-14T07:56:49.457Z,57.20
2022-10-14T07:59:18.931Z,57.81
2022-10-14T08:01:51.315Z,57.09
2022-10-14T08:04:18.942Z,55.98
2022-10-14T08:06:48.697Z,53.78
2022-10-14T08:09:16.868Z,53.97
2022-10-14T08:11:44.572Z,53.84
2022-10-14T08:14:12.019Z,52.50
2022-10-14T08:16:40.514Z,52.90
2022-10-14T08:19:14.126Z,53.03
2022-10-14T08:21:42.788Z,51.92
2022-10-14T08:24:10.270Z,52.10
2022-10-14T08:26:53.585Z,52.50
2022-10-14T08:29:22.669Z,54.03
2022-10-14T08:31:51.422Z,54.25
2022-10-14T08:34:21.213Z,55.08
2022-10-14T08:36:49.076Z,54.69
2022-10-14T08:39:19.356Z,55.23
2022-10-14T08:42:07.299Z,55.34
2022-10-14T08:44:43.768Z,56.00
2022-10-14T08:47:26.916Z,56.87
2022-10-14T08:50:10.538Z,55.45
2022-10-14T08:52:50.891Z,56.70
2022-10-14T08:55:50.854Z,56.15
2022-10-14T08:58:39.995Z,55.10
2022-10-14T09:01:31.661Z,52.86
2022-10-14T09:04:07.894Z,52.86
2022-10-14T09:06:38.687Z,54.11
2022-10-14T09:09:28.447Z,54.41
2022-10-14T09:12:01.787Z,54.18
2022-10-14T09:14:37.327Z,54.28
2022-10-14T09:17:20.078Z,53.88
2022-10-14T09:20:23.278Z,53.52
2022-10-14T09:23:15.720Z,52.78
2022-10-14T09:26:07.108Z,51.92
2022-10-14T09:28:38.954Z,52.19
2022-10-14T09:31:10.612Z,52.01
2022-10-14T09:33:42.594Z,52.40
2022-10-14T09:36:21.004Z,54.96
2022-10-14T09:38:52.965Z,54.81
2022-10-14T09:41:30.793Z,55.24
2022-10-14T09:44:22.455Z,57.15
2022-10-14T09:47:08.176Z,57.12
2022-10-14T09:49:47.950Z,57.01
2022-10-14T09:52:24.444Z,57.04
2022-10-14T09:54:58.668Z,56.45
2022-10-14T09:57:26.218Z,56.19
2022-10-14T10:00:04.955Z,56.65
2022-10-14T10:02:42.315Z,56.45
2022-10-14T10:05:29.826Z,57.16
2022-10-14T10:08:14.485Z,57.92
2022-10-14T10:10:41.706Z,57.59
2022-10-14T10:13:32.747Z,57.59
2022-10-14T10:16:03.954Z,57.27
2022-10-14T10:18:31.181Z,57.08
2022-10-14T10:21:33.096Z,55.10
2022-10-14T10:24:03.632Z,54.79
2022-10-14T10:26:33.943Z,54.67
2022-10-14T10:29:04.778Z,55.37
2022-10-14T10:31:50.097Z,53.92
2022-10-14T10:34:36.612Z,52.80
2022-10-14T10:37:19.907Z,52.93
2022-10-14T10:40:31.803Z,52.92
2022-10-14T10:43:31.435Z,52.20
2022-10-14T10:46:28.285Z,51.56
2022-10-14T10:49:03.586Z,50.47
2022-10-14T10:51:49.206Z,48.87
2022-10-14T10:55:11.983Z,49.85
2022-10-14T10:58:14.418Z,48.86
2022-10-14T11:01:50.113Z,49.35
2022-10-14T11:04:46.753Z,49.60
2022-10-14T11:07:51.678Z,51.13
2022-10-14T11:10:57.594Z,52.33
2022-10-14T11:13:49.432Z,50.31
2022-10-14T11:16:35.371Z,51.14
2022-10-14T11:19:22.202Z,51.66
2022-10-14T11:22:24.398Z,51.73
2022-10-14T11:25:25.622Z,52.16
2022-10-14T11:28:15.885Z,52.21
2022-10-14T11:31:27.480Z,52.29
2022-10-14T11:34:29.210Z,52.75
2022-10-14T11:37:43.059Z,50.79
2022-10-14T11:40:40.761Z,51.62
2022-10-14T11:43:13.637Z,53.20
2022-10-14T11:46:05.275Z,53.76
2022-10-14T11:49:04.004Z,52.89
2022-10-14T11:51:42.249Z,53.14
2022-10-14T11:54:53.817Z,54.70
2022-10-14T11:57:58.245Z,55.99
2022-10-14T12:00:31.037Z,56.29
2022-10-14T12:03:24.113Z,56.75
2022-10-14T12:06:04.996Z,56.33
2022-10-14T12:09:14.925Z,56.47
2022-10-14T12:11:52.340Z,56.91
2022-10-14T12:14:36.313Z,55.70
2022-10-14T12:17:19.256Z,55.52
2022-10-14T12:19:46.596Z,55.63
2022-10-14T12:22:21.358Z,55.46
2022-10-14T12:24:56.505Z,55.94
2022-10-14T12:27:27.224Z,56.82
2022-10-14T12:29:58.942Z,55.68
2022-10-14T12:32:31.017Z,56.67
2022-10-14T12:35:02.255Z,56.95
2022-10-14T12:37:32.680Z,56.98
2022-10-14T12:40:02.944Z,57.76
2022-10-14T12:42:36.455Z,58.15
2022-10-14T12:45:16.642Z,58.45
2022-10-14T12:47:44.108Z,58.87
2022-10-14T12:50:14.074Z,58.68
2022-10-14T12:52:46.518Z,58.01
2022-10-14T12:55:23.919Z,56.94
2022-10-14T12:58:02.910Z,56.84
2022-10-14T13:00:39.607Z,57.27
2022-10-14T13:03:20.484Z,57.31
2022-10-14T13:05:47.972Z,57.57
2022-10-14T13:08:21.101Z,58.57
2022-10-14T13:10:50.480Z,57.52
2022-10-14T13:13:40.042Z,58.78
2022-10-14T13:16:25.751Z,58.89
2022-10-14T13:19:01.329Z,59.30
2022-10-14T13:21:37.456Z,60.10
2022-10-14T13:24:24.155Z,59.86
2022-10-14T13:26:53.894Z,59.39
2022-10-14T13:29:20.694Z,60.81
2022-10-14T13:31:54.136Z,61.68
2022-10-14T13:34:36.403Z,61.79
2022-10-14T13:37:32.586Z,62.75
2022-10-14T13:40:17.619Z,63.03
2022-10-14T13:42:52.109Z,62.50
2022-10-14T13:45:22.454Z,63.02
2022-10-14T13:47:50.232Z,63.27
2022-10-14T13:50:24.163Z,62.38
2022-10-14T13:52:58.796Z,63.26
2022-10-14T13:55:27.207Z,63.50
2022-10-14T13:58:12.567Z,63.61
2022-10-14T14:00:51.499Z,63.64
2022-10-14T14:03:43.435Z,64.37
2022-10-14T14:06:17.457Z,64.29
2022-10-14T14:08:56.807Z,64.19
2022-10-14T14:11:35.343Z,64.64
2022-10-14T14:14:31.017Z,64.76
2022-10-14T14:17:01.243Z,64.72
2022-10-14T14:19:37.751Z,65.18
2022-10-14T14:22:29.372Z,66.05
2022-10-14T14:25:33.308Z,65.51
2022-10-14T14:28:05.805Z,66.28
2022-10-14T14:30:38.857Z,65.89
2022-10-14T14:33:12.281Z,66.92
2022-10-14T14:35:55.891Z,66.96
2022-10-14T14:38:32.752Z,68.01
2022-10-14T14:41:16.819Z,68.31
2022-10-14T14:43:53.355Z,68.29
2022-10-14T14:46:40.250Z,68.68
2022-10-14T14:49:11.748Z,68.94
2022-10-14T14:51:40.622Z,68.62
2022-10-14T14:54:08.388Z,69.10
2022-10-14T14:56:44.202Z,68.86
2022-10-14T14:59:36.591Z,69.93
2022-10-14T15:02:14.873Z,70.01
2022-10-14T15:04:42.322Z,70.06
2022-10-14T15:07:21.556Z,70.30
2022-10-14T15:09:55.787Z,70.60
2022-10-14T15:12:31.172Z,71.16
2022-10-14T15:15:00.635Z,70.89
2022-10-14T15:17:39.797Z,71.44
2022-10-14T15:20:27.297Z,71.53
2022-10-14T15:22:54.250Z,71.46
2022-10-14T15:25:32.163Z,71.47
2022-10-14T15:28:02.010Z,72.03
2022-10-14T15:30:36.647Z,72.29
2022-10-14T15:33:19.324Z,72.52
2022-10-14T15:36:00.435Z,72.32
2022-10-14T15:38:28.234Z,72.13
2022-10-14T15:40:55.881Z,71.93
2022-10-14T15:43:25.890Z,72.34
2022-10-14T15:46:14.540Z,71.66
2022-10-14T15:48:54.924Z,72.14
2022-10-14T15:51:23.593Z,72.26
2022-10-14T15:53:51.841Z,72.00
2022-10-14T15:56:21.023Z,72.69
2022-10-14T15:58:48.824Z,72.13
2022-10-14T16:01:23.790Z,72.70
2022-10-14T16:03:55.543Z,73.36
2022-10-14T16:06:24.184Z,73.44
2022-10-14T16:08:51.191Z,73.93
2022-10-14T16:11:28.892Z,73.68
2022-10-14T16:13:56.796Z,73.70
2022-10-14T16:16:50.296Z,74.17
2022-10-14T16:19:17.269Z,74.57
2022-10-14T16:21:44.333Z,74.72
2022-10-14T16:24:20.987Z,74.41
2022-10-14T16:26:51.378Z,74.84
2022-10-14T16:29:20.302Z,74.55
2022-10-14T16:31:50.057Z,74.99
2022-10-14T16:34:19.306Z,75.89
2022-10-14T16:36:48.855Z,76.24
2022-10-14T16:39:17.290Z,74.81
2022-10-14T16:41:44.822Z,76.16
2022-10-14T16:44:27.615Z,77.14
2022-10-14T16:47:19.571Z,76.88
2022-10-14T16:49:51.119Z,76.90
2022-10-14T16:52:19.168Z,75.88
2022-10-14T16:54:46.456Z,77.48
2022-10-14T16:57:14.213Z,77.98
2022-10-14T16:59:41.678Z,78.26
2022-10-14T17:02:14.268Z,78.62
2022-10-14T17:04:42.146Z,79.01
2022-10-14T17:07:10.268Z,78.76
2022-10-14T17:09:39.419Z,78.30
2022-10-14T17:12:11.179Z,79.19
2022-10-14T17:14:41.026Z,78.79
2022-10-14T17:17:08.009Z,78.67
2022-10-14T17:19:35.459Z,79.23
2022-10-14T17:22:03.219Z,79.92
2022-10-14T17:24:30.527Z,79.40
2022-10-14T17:26:58.675Z,79.62
2022-10-14T17:29:25.636Z,79.23
2022-10-14T17:31:52.606Z,78.58
2022-10-14T17:34:19.539Z,79.00
2022-10-14T17:36:46.539Z,79.94
2022-10-14T17:39:18.946Z,79.59
2022-10-14T17:41:51.568Z,80.58
2022-10-14T17:44:18.886Z,80.72
2022-10-14T17:46:45.966Z,80.29
2022-10-14T17:49:13.247Z,80.03
2022-10-14T17:51:40.190Z,80.29
2022-10-14T17:54:11.030Z,82.11
2022-10-14T17:56:38.975Z,81.75
2022-10-14T17:59:11.106Z,81.26
2022-10-14T18:04:25.403Z,81.96
2022-10-14T18:06:54.185Z,82.44
2022-10-14T18:09:21.290Z,83.00
2022-10-14T18:14:41.534Z,84.05
2022-10-14T18:17:12.836Z,84.37
2022-10-14T18:19:41.111Z,83.27
2022-10-14T18:22:08.328Z,84.38
2022-10-14T18:24:38.728Z,84.72
2022-10-14T18:27:05.876Z,84.96
2022-10-14T18:29:32.820Z,85.83
2022-10-14T18:31:59.800Z,85.42
2022-10-14T18:34:28.263Z,85.41
2022-10-14T18:36:55.204Z,85.44
2022-10-14T18:39:22.478Z,85.75
2022-10-14T18:41:49.645Z,84.99
2022-10-14T18:44:16.689Z,85.50
2022-10-14T18:46:43.702Z,86.32
2022-10-14T18:49:11.899Z,86.93
2022-10-14T18:51:41.010Z,88.13
2022-10-14T18:54:19.174Z,87.77
2022-10-14T18:56:46.672Z,88.24
2022-10-14T18:59:23.149Z,87.96
2022-10-14T19:01:54.136Z,87.65
2022-10-14T19:04:24.994Z,88.44
2022-10-14T19:06:52.064Z,88.69
2022-10-14T19:09:22.364Z,88.58
2022-10-14T19:11:53.022Z,88.93
2022-10-14T19:14:20.912Z,89.38
2022-10-14T19:16:49.571Z,87.64
2022-10-14T19:19:19.799Z,88.97
2022-10-14T19:21:50.741Z,89.48
2022-10-14T19:24:18.130Z,89.13
2022-10-14T19:26:47.274Z,89.26
2022-10-14T19:29:15.981Z,89.14
2022-10-14T19:31:44.087Z,88.26
2022-10-14T19:34:15.321Z,88.98
2022-10-14T19:36:44.097Z,89.13
2022-10-14T19:39:15.194Z,89.34
2022-10-14T19:41:47.266Z,89.63
2022-10-14T19:44:16.087Z,89.00
2022-10-14T19:46:44.397Z,89.11
2022-10-14T19:49:14.418Z,89.50
2022-10-14T19:51:41.670Z,89.00
2022-10-14T19:54:12.434Z,88.77
2022-10-14T19:56:39.710Z,88.48
2022-10-14T19:59:06.949Z,89.54
2022-10-14T20:01:34.277Z,90.16
2022-10-14T20:04:02.373Z,89.98
2022-10-14T20:06:33.779Z,90.29
2022-10-14T20:09:00.983Z,89.56
2022-10-14T20:11:28.619Z,89.62
2022-10-14T20:13:55.600Z,90.80
2022-10-14T20:16:22.721Z,90.08
2022-10-14T20:18:49.660Z,90.70
2022-10-14T20:21:16.989Z,90.99
2022-10-14T20:23:44.649Z,91.58
2022-10-14T20:26:21.055Z,91.04
2022-10-14T20:28:49.870Z,90.86
2022-10-14T20:31:21.067Z,92.19
2022-10-14T20:33:48.439Z,92.26
2022-10-14T20:36:18.725Z,91.83
2022-10-14T20:38:47.212Z,92.56
2022-10-14T20:41:22.804Z,92.50
2022-10-14T20:43:50.502Z,92.77
2022-10-14T20:46:18.347Z,92.18
2022-10-14T20:48:46.549Z,93.36
2022-10-14T20:51:19.995Z,93.16
2022-10-14T20:53:46.969Z,92.95
2022-10-14T20:56:14.814Z,92.90
2022-10-14T20:58:42.534Z,92.99
2022-10-14T21:01:16.065Z,93.73
2022-10-14T21:03:45.511Z,93.99
2022-10-14T21:06:17.082Z,93.93
2022-10-14T21:08:44.308Z,93.83
2022-10-14T21:11:16.037Z,94.65
2022-10-14T21:13:58.557Z,95.17
2022-10-14T21:16:32.307Z,94.67
2022-10-14T21:19:05.464Z,94.25
2022-10-14T21:21:49.313Z,95.08
2022-10-14T21:24:18.524Z,95.60
2022-10-14T21:26:48.579Z,95.57
2022-10-14T21:29:15.725Z,95.86
2022-10-14T21:31:43.193Z,96.23
2022-10-14T21:34:11.618Z,94.89
2022-10-14T21:36:39.790Z,96.15
2022-10-14T21:39:13.484Z,96.37
2022-10-14T21:41:41.647Z,97.28
2022-10-14T21:44:13.461Z,97.50
2022-10-14T21:46:40.550Z,97.48
2022-10-14T21:49:11.095Z,98.08
2022-10-14T21:51:38.983Z,97.43
2022-10-14T21:54:06.438Z,97.68
2022-10-14T21:56:33.462Z,98.00
2022-10-14T21:59:00.355Z,98.51
2022-10-14T22:01:29.858Z,98.82
2022-10-14T22:04:06.378Z,98.99
2022-10-14T22:06:35.806Z,98.98
2022-10-14T22:09:06.123Z,99.06
2022-10-14T22:11:40.168Z,99.60
2022-10-14T22:14:12.509Z,99.27
2022-10-14T22:16:39.856Z,100.00
2022-10-14T22:19:07.375Z,99.93
2022-10-14T22:21:36.984Z,99.26
2022-10-14T22:24:05.392Z,99.66
2022-10-14T22:26:33.316Z,100.00
2022-10-14T22:29:06.381Z,100.00
2022-10-14T22:31:34.662Z,99.99
2022-10-14T22:34:04.582Z,100.00
2022-10-14T22:36:32.565Z,100.00
2022-10-14T22:39:01.932Z,100.00
2022-10-14T22:41:34.980Z,100.00
2022-10-14T22:44:05.061Z,99.35
2022-10-14T22:46:35.069Z,99.77
2022-10-14T22:49:02.474Z,99.95
2022-10-14T22:51:40.622Z,100.00
2022-10-14T22:54:09.104Z,100.00
2022-10-14T22:56:36.695Z,100.00
2022-10-14T22:59:11.509Z,100.00
2022-10-14T23:01:41.367Z,100.00
2022-10-14T23:04:10.007Z,100.00
2022-10-14T23:06:37.281Z,100.00
2022-10-14T23:09:04.430Z,100.00
2022-10-14T23:11:32.246Z,100.00
2022-10-14T23:14:01.568Z,100.00
2022-10-14T23:16:31.639Z,100.00
2022-10-14T23:18:59.648Z,100.00
2022-10-14T23:21:33.295Z,100.00
2022-10-14T23:24:04.733Z,100.00
2022-10-14T23:26:34.461Z,100.00
2022-10-14T23:29:09.956Z,100.00
2022-10-14T23:31:39.207Z,100.00
2022-10-14T23:34:11.132Z,100.00
2022-10-14T23:36:38.297Z,100.00
2022-10-14T23:39:06.212Z,100.00
2022-10-14T23:41:33.139Z,100.00
2022-10-14T23:44:00.148Z,100.00
2022-10-14T23:46:27.083Z,100.00
2022-10-14T23:49:06.841Z,100.00
2022-10-14T23:51:41.228Z,100.00
2022-10-14T23:54:08.637Z,100.00
2022-10-14T23:56:35.573Z,100.00
2022-10-14T23:59:02.494Z,100.00
